sensor_id;sensor_type;location;lat;lon;timestamp;pressure;altitude;pressure_sealevel;temperature;humidity
27729;BME280;15126;42.186;24.340;2024-02-28T00:00:33;99897.25;;;8.28;72.19
27729;BME280;15126;42.186;24.340;2024-02-28T00:02:59;99896.44;;;8.26;72.64
27729;BME280;15126;42.186;24.340;2024-02-28T00:05:24;99888.28;;;8.15;72.23
27729;BME280;15126;42.186;24.340;2024-02-28T00:07:49;99897.56;;;8.19;72.75
27729;BME280;15126;42.186;24.340;2024-02-28T00:10:15;99891.72;;;8.14;72.99
27729;BME280;15126;42.186;24.340;2024-02-28T00:12:40;99889.63;;;8.00;72.82
27729;BME280;15126;42.186;24.340;2024-02-28T00:15:06;99897.09;;;8.06;72.29
27729;BME280;15126;42.186;24.340;2024-02-28T00:17:38;99898.84;;;8.04;73.06
27729;BME280;15126;42.186;24.340;2024-02-28T00:20:05;99898.03;;;8.04;73.00
27729;BME280;15126;42.186;24.340;2024-02-28T00:22:34;99900.59;;;8.04;73.43
27729;BME280;15126;42.186;24.340;2024-02-28T00:25:00;99899.00;;;8.00;73.12
27729;BME280;15126;42.186;24.340;2024-02-28T00:27:26;99906.97;;;7.92;73.90
27729;BME280;15126;42.186;24.340;2024-02-28T00:29:52;99907.88;;;7.89;73.04
27729;BME280;15126;42.186;24.340;2024-02-28T00:32:17;99905.19;;;7.94;73.23
27729;BME280;15126;42.186;24.340;2024-02-28T00:34:43;99905.38;;;7.88;74.16
27729;BME280;15126;42.186;24.340;2024-02-28T00:37:09;99915.97;;;7.77;74.59
27729;BME280;15126;42.186;24.340;2024-02-28T00:39:34;99915.72;;;7.57;74.35
27729;BME280;15126;42.186;24.340;2024-02-28T00:42:00;99918.16;;;7.61;75.24
27729;BME280;15126;42.186;24.340;2024-02-28T00:44:25;99908.16;;;7.53;74.58
27729;BME280;15126;42.186;24.340;2024-02-28T00:46:50;99920.97;;;7.53;74.85
27729;BME280;15126;42.186;24.340;2024-02-28T00:49:16;99925.84;;;7.61;74.89
27729;BME280;15126;42.186;24.340;2024-02-28T00:51:41;99923.72;;;7.46;75.32
27729;BME280;15126;42.186;24.340;2024-02-28T00:54:07;99923.88;;;7.41;76.26
27729;BME280;15126;42.186;24.340;2024-02-28T00:56:33;99919.16;;;7.55;75.55
27729;BME280;15126;42.186;24.340;2024-02-28T00:58:59;99927.91;;;7.48;76.00
27729;BME280;15126;42.186;24.340;2024-02-28T01:01:24;99925.31;;;7.50;76.01
27729;BME280;15126;42.186;24.340;2024-02-28T01:03:50;99928.56;;;7.55;75.18
27729;BME280;15126;42.186;24.340;2024-02-28T01:06:15;99932.69;;;7.61;74.89
27729;BME280;15126;42.186;24.340;2024-02-28T01:08:41;99932.50;;;7.67;74.68
27729;BME280;15126;42.186;24.340;2024-02-28T01:11:07;99931.72;;;7.65;74.55
27729;BME280;15126;42.186;24.340;2024-02-28T01:13:32;99925.59;;;7.69;75.55
27729;BME280;15126;42.186;24.340;2024-02-28T01:15:58;99933.34;;;7.67;75.29
27729;BME280;15126;42.186;24.340;2024-02-28T01:18:25;99929.16;;;7.65;75.37
27729;BME280;15126;42.186;24.340;2024-02-28T01:20:56;99930.00;;;7.64;74.49
27729;BME280;15126;42.186;24.340;2024-02-28T01:23:21;99934.47;;;7.29;75.94
27729;BME280;15126;42.186;24.340;2024-02-28T01:25:47;99931.31;;;7.19;75.02
27729;BME280;15126;42.186;24.340;2024-02-28T01:28:12;99930.78;;;7.08;74.83
27729;BME280;15126;42.186;24.340;2024-02-28T01:30:38;99940.59;;;6.92;74.86
27729;BME280;15126;42.186;24.340;2024-02-28T01:33:03;99937.22;;;6.90;75.01
27729;BME280;15126;42.186;24.340;2024-02-28T01:35:29;99930.63;;;6.83;74.64
27729;BME280;15126;42.186;24.340;2024-02-28T01:37:54;99932.38;;;6.81;74.43
27729;BME280;15126;42.186;24.340;2024-02-28T01:40:20;99941.09;;;6.73;74.70
27729;BME280;15126;42.186;24.340;2024-02-28T01:42:46;99928.50;;;6.66;74.29
27729;BME280;15126;42.186;24.340;2024-02-28T01:45:13;99928.69;;;6.58;75.06
27729;BME280;15126;42.186;24.340;2024-02-28T01:47:39;99923.53;;;6.60;74.68
27729;BME280;15126;42.186;24.340;2024-02-28T01:50:05;99936.63;;;6.47;75.40
27729;BME280;15126;42.186;24.340;2024-02-28T01:52:31;99925.66;;;6.44;75.13
27729;BME280;15126;42.186;24.340;2024-02-28T01:54:56;99934.06;;;6.49;75.27
27729;BME280;15126;42.186;24.340;2024-02-28T01:57:22;99937.41;;;6.51;74.76
27729;BME280;15126;42.186;24.340;2024-02-28T01:59:48;99936.44;;;6.55;74.80
27729;BME280;15126;42.186;24.340;2024-02-28T02:02:13;99938.25;;;6.51;74.86
27729;BME280;15126;42.186;24.340;2024-02-28T02:04:39;99950.38;;;6.43;75.19
27729;BME280;15126;42.186;24.340;2024-02-28T02:07:06;99954.09;;;6.31;75.18
27729;BME280;15126;42.186;24.340;2024-02-28T02:09:33;99949.94;;;6.26;75.44
27729;BME280;15126;42.186;24.340;2024-02-28T02:11:59;99953.44;;;6.23;75.56
27729;BME280;15126;42.186;24.340;2024-02-28T02:14:25;99962.13;;;6.16;76.10
27729;BME280;15126;42.186;24.340;2024-02-28T02:16:50;99970.66;;;6.15;75.81
27729;BME280;15126;42.186;24.340;2024-02-28T02:19:16;99971.53;;;6.14;76.21
27729;BME280;15126;42.186;24.340;2024-02-28T02:21:50;99977.00;;;5.99;76.84
27729;BME280;15126;42.186;24.340;2024-02-28T02:24:18;99982.06;;;6.00;76.34
27729;BME280;15126;42.186;24.340;2024-02-28T02:26:44;99989.56;;;6.08;76.64
27729;BME280;15126;42.186;24.340;2024-02-28T02:29:12;99991.31;;;6.06;77.04
27729;BME280;15126;42.186;24.340;2024-02-28T02:31:37;99983.72;;;6.03;76.90
27729;BME280;15126;42.186;24.340;2024-02-28T02:34:03;99983.72;;;6.03;77.17
27729;BME280;15126;42.186;24.340;2024-02-28T02:36:28;99985.28;;;6.10;76.78
27729;BME280;15126;42.186;24.340;2024-02-28T02:38:53;99978.28;;;6.18;75.82
27729;BME280;15126;42.186;24.340;2024-02-28T02:41:19;99977.31;;;6.22;75.75
27729;BME280;15126;42.186;24.340;2024-02-28T02:43:44;99978.09;;;6.24;75.73
27729;BME280;15126;42.186;24.340;2024-02-28T02:46:10;99979.28;;;6.09;76.66
27729;BME280;15126;42.186;24.340;2024-02-28T02:48:35;99980.19;;;6.08;76.46
27729;BME280;15126;42.186;24.340;2024-02-28T02:51:01;99975.06;;;6.08;76.72
27729;BME280;15126;42.186;24.340;2024-02-28T02:53:27;99981.91;;;6.08;77.09
27729;BME280;15126;42.186;24.340;2024-02-28T02:55:52;99981.81;;;6.11;76.88
27729;BME280;15126;42.186;24.340;2024-02-28T02:58:19;99982.56;;;6.16;76.23
27729;BME280;15126;42.186;24.340;2024-02-28T03:00:44;99981.69;;;6.17;76.02
27729;BME280;15126;42.186;24.340;2024-02-28T03:03:10;99982.50;;;6.19;75.69
27729;BME280;15126;42.186;24.340;2024-02-28T03:05:35;99976.00;;;6.06;76.07
27729;BME280;15126;42.186;24.340;2024-02-28T03:08:01;99984.50;;;6.05;75.91
27729;BME280;15126;42.186;24.340;2024-02-28T03:10:26;99983.13;;;5.90;76.85
27729;BME280;15126;42.186;24.340;2024-02-28T03:12:52;99984.09;;;5.84;76.78
27729;BME280;15126;42.186;24.340;2024-02-28T03:15:17;99985.09;;;5.77;77.29
27729;BME280;15126;42.186;24.340;2024-02-28T03:17:42;99985.22;;;5.71;77.11
27729;BME280;15126;42.186;24.340;2024-02-28T03:20:08;99989.47;;;5.72;77.08
27729;BME280;15126;42.186;24.340;2024-02-28T03:22:34;99994.47;;;5.77;76.54
27729;BME280;15126;42.186;24.340;2024-02-28T03:24:59;99994.56;;;5.74;76.56
27729;BME280;15126;42.186;24.340;2024-02-28T03:27:25;99988.66;;;5.71;76.78
27729;BME280;15126;42.186;24.340;2024-02-28T03:29:50;99978.44;;;5.71;76.35
27729;BME280;15126;42.186;24.340;2024-02-28T03:32:15;99980.00;;;5.76;76.28
27729;BME280;15126;42.186;24.340;2024-02-28T03:34:41;99988.66;;;5.70;76.70
27729;BME280;15126;42.186;24.340;2024-02-28T03:37:06;99985.97;;;5.76;76.33
27729;BME280;15126;42.186;24.340;2024-02-28T03:39:32;99986.00;;;5.75;76.62
27729;BME280;15126;42.186;24.340;2024-02-28T03:41:57;99979.25;;;5.74;76.81
27729;BME280;15126;42.186;24.340;2024-02-28T03:44:23;99996.94;;;5.81;76.72
27729;BME280;15126;42.186;24.340;2024-02-28T03:46:48;99998.47;;;5.48;78.12
27729;BME280;15126;42.186;24.340;2024-02-28T03:49:14;100003.03;;;5.34;79.45
27729;BME280;15126;42.186;24.340;2024-02-28T03:51:40;99997.03;;;5.35;78.72
27729;BME280;15126;42.186;24.340;2024-02-28T03:54:06;99998.63;;;5.40;78.32
27729;BME280;15126;42.186;24.340;2024-02-28T03:56:31;100007.16;;;5.39;78.69
27729;BME280;15126;42.186;24.340;2024-02-28T03:58:57;100010.84;;;5.24;78.54
27729;BME280;15126;42.186;24.340;2024-02-28T04:01:22;100005.91;;;5.17;79.54
27729;BME280;15126;42.186;24.340;2024-02-28T04:03:48;100009.91;;;5.30;78.42
27729;BME280;15126;42.186;24.340;2024-02-28T04:06:13;100011.53;;;5.33;78.22
27729;BME280;15126;42.186;24.340;2024-02-28T04:08:40;100016.81;;;5.23;79.01
27729;BME280;15126;42.186;24.340;2024-02-28T04:11:06;100002.50;;;5.16;79.38
27729;BME280;15126;42.186;24.340;2024-02-28T04:13:31;100004.28;;;5.13;79.11
27729;BME280;15126;42.186;24.340;2024-02-28T04:15:57;100016.72;;;5.28;78.74
27729;BME280;15126;42.186;24.340;2024-02-28T04:18:22;100008.84;;;5.40;77.75
27729;BME280;15126;42.186;24.340;2024-02-28T04:20:50;100006.34;;;5.37;77.88
27729;BME280;15126;42.186;24.340;2024-02-28T04:23:15;100005.50;;;5.37;78.03
27729;BME280;15126;42.186;24.340;2024-02-28T04:25:42;99998.69;;;5.37;77.31
27729;BME280;15126;42.186;24.340;2024-02-28T04:28:07;100000.34;;;5.40;77.58
27729;BME280;15126;42.186;24.340;2024-02-28T04:30:34;100002.09;;;5.38;78.39
27729;BME280;15126;42.186;24.340;2024-02-28T04:32:59;99995.41;;;5.30;77.99
27729;BME280;15126;42.186;24.340;2024-02-28T04:35:25;99996.31;;;5.28;78.22
27729;BME280;15126;42.186;24.340;2024-02-28T04:37:50;100001.19;;;5.40;77.55
27729;BME280;15126;42.186;24.340;2024-02-28T04:40:16;99999.44;;;5.42;77.72
27729;BME280;15126;42.186;24.340;2024-02-28T04:42:42;99999.50;;;5.39;78.25
27729;BME280;15126;42.186;24.340;2024-02-28T04:45:10;100007.44;;;5.25;78.66
27729;BME280;15126;42.186;24.340;2024-02-28T04:47:37;99998.19;;;5.18;78.66
27729;BME280;15126;42.186;24.340;2024-02-28T04:50:03;100000.72;;;5.21;78.63
27729;BME280;15126;42.186;24.340;2024-02-28T04:52:30;99993.34;;;5.06;78.86
27729;BME280;15126;42.186;24.340;2024-02-28T04:54:56;100011.81;;;5.19;78.07
27729;BME280;15126;42.186;24.340;2024-02-28T04:57:22;99999.06;;;5.19;78.09
27729;BME280;15126;42.186;24.340;2024-02-28T04:59:47;100004.06;;;5.25;77.89
27729;BME280;15126;42.186;24.340;2024-02-28T05:02:13;100006.44;;;5.31;77.79
27729;BME280;15126;42.186;24.340;2024-02-28T05:04:38;100006.31;;;5.39;76.97
27729;BME280;15126;42.186;24.340;2024-02-28T05:07:04;100007.13;;;5.41;77.94
27729;BME280;15126;42.186;24.340;2024-02-28T05:09:32;100010.56;;;5.40;77.96
27729;BME280;15126;42.186;24.340;2024-02-28T05:11:57;100016.44;;;5.43;78.19
27729;BME280;15126;42.186;24.340;2024-02-28T05:14:23;100018.03;;;5.49;77.31
27729;BME280;15126;42.186;24.340;2024-02-28T05:16:49;100024.91;;;5.45;77.79
27729;BME280;15126;42.186;24.340;2024-02-28T05:19:15;100028.34;;;5.44;77.90
27729;BME280;15126;42.186;24.340;2024-02-28T05:21:43;100027.44;;;5.47;77.67
27729;BME280;15126;42.186;24.340;2024-02-28T05:24:12;100025.59;;;5.54;77.75
27729;BME280;15126;42.186;24.340;2024-02-28T05:26:38;100028.88;;;5.59;77.01
27729;BME280;15126;42.186;24.340;2024-02-28T05:29:05;100023.69;;;5.63;76.94
27729;BME280;15126;42.186;24.340;2024-02-28T05:31:31;100030.34;;;5.70;76.39
27729;BME280;15126;42.186;24.340;2024-02-28T05:33:57;100037.09;;;5.73;76.61
27729;BME280;15126;42.186;24.340;2024-02-28T05:36:24;100033.72;;;5.72;77.12
27729;BME280;15126;42.186;24.340;2024-02-28T05:38:50;100037.78;;;5.81;76.47
27729;BME280;15126;42.186;24.340;2024-02-28T05:41:17;100031.78;;;5.84;76.45
27729;BME280;15126;42.186;24.340;2024-02-28T05:43:43;100036.72;;;5.93;76.38
27729;BME280;15126;42.186;24.340;2024-02-28T05:46:09;100045.94;;;6.00;76.71
27729;BME280;15126;42.186;24.340;2024-02-28T05:48:34;100037.50;;;5.97;76.88
27729;BME280;15126;42.186;24.340;2024-02-28T05:51:02;100037.31;;;6.06;76.20
27729;BME280;15126;42.186;24.340;2024-02-28T05:53:31;100038.00;;;6.13;75.62
27729;BME280;15126;42.186;24.340;2024-02-28T05:56:09;100056.56;;;6.21;76.25
27729;BME280;15126;42.186;24.340;2024-02-28T05:58:46;100059.84;;;6.26;75.71
27729;BME280;15126;42.186;24.340;2024-02-28T06:01:15;100058.84;;;6.33;75.60
27729;BME280;15126;42.186;24.340;2024-02-28T06:03:46;100068.03;;;6.42;75.32
27729;BME280;15126;42.186;24.340;2024-02-28T06:06:12;100074.44;;;6.58;74.87
27729;BME280;15126;42.186;24.340;2024-02-28T06:08:39;100073.34;;;6.68;74.42
27729;BME280;15126;42.186;24.340;2024-02-28T06:11:05;100073.19;;;6.76;73.89
27729;BME280;15126;42.186;24.340;2024-02-28T06:13:33;100082.84;;;6.65;74.40
27729;BME280;15126;42.186;24.340;2024-02-28T06:15:58;100083.03;;;6.56;74.61
27729;BME280;15126;42.186;24.340;2024-02-28T06:18:25;100079.75;;;6.50;74.35
27729;BME280;15126;42.186;24.340;2024-02-28T06:20:54;100085.16;;;6.38;74.50
27729;BME280;15126;42.186;24.340;2024-02-28T06:23:21;100082.22;;;6.53;74.08
27729;BME280;15126;42.186;24.340;2024-02-28T06:25:46;100083.56;;;6.70;73.82
27729;BME280;15126;42.186;24.340;2024-02-28T06:28:12;100090.00;;;6.86;72.40
27729;BME280;15126;42.186;24.340;2024-02-28T06:30:37;100086.09;;;7.06;72.75
27729;BME280;15126;42.186;24.340;2024-02-28T06:33:08;100083.56;;;7.04;72.07
27729;BME280;15126;42.186;24.340;2024-02-28T06:35:36;100084.06;;;7.19;72.79
27729;BME280;15126;42.186;24.340;2024-02-28T06:38:04;100078.28;;;7.10;72.94
27729;BME280;15126;42.186;24.340;2024-02-28T06:40:29;100082.63;;;7.41;71.44
27729;BME280;15126;42.186;24.340;2024-02-28T06:42:55;100083.63;;;7.36;72.25
27729;BME280;15126;42.186;24.340;2024-02-28T06:45:23;100081.13;;;7.65;71.03
27729;BME280;15126;42.186;24.340;2024-02-28T06:47:48;100089.13;;;7.53;70.57
27729;BME280;15126;42.186;24.340;2024-02-28T06:50:14;100087.16;;;7.63;72.30
27729;BME280;15126;42.186;24.340;2024-02-28T06:52:41;100097.81;;;7.79;69.90
27729;BME280;15126;42.186;24.340;2024-02-28T06:55:07;100097.47;;;7.91;70.89
27729;BME280;15126;42.186;24.340;2024-02-28T06:57:40;100105.56;;;8.36;69.11
27729;BME280;15126;42.186;24.340;2024-02-28T07:00:07;100105.47;;;8.68;68.58
27729;BME280;15126;42.186;24.340;2024-02-28T07:02:44;100102.69;;;8.74;67.57
27729;BME280;15126;42.186;24.340;2024-02-28T07:05:09;100098.00;;;9.13;66.74
27729;BME280;15126;42.186;24.340;2024-02-28T07:07:37;100109.19;;;9.12;66.68
27729;BME280;15126;42.186;24.340;2024-02-28T07:10:03;100105.28;;;9.26;65.47
27729;BME280;15126;42.186;24.340;2024-02-28T07:12:35;100110.44;;;9.51;65.86
27729;BME280;15126;42.186;24.340;2024-02-28T07:15:01;100106.72;;;9.83;64.72
27729;BME280;15126;42.186;24.340;2024-02-28T07:17:26;100109.06;;;9.89;64.13
27729;BME280;15126;42.186;24.340;2024-02-28T07:19:52;100107.75;;;10.01;64.17
27729;BME280;15126;42.186;24.340;2024-02-28T07:22:17;100105.81;;;10.31;63.71
27729;BME280;15126;42.186;24.340;2024-02-28T07:24:43;100103.22;;;10.53;63.39
27729;BME280;15126;42.186;24.340;2024-02-28T07:27:08;100100.66;;;10.53;62.53
27729;BME280;15126;42.186;24.340;2024-02-28T07:29:34;100102.13;;;10.81;61.94
27729;BME280;15126;42.186;24.340;2024-02-28T07:31:59;100106.53;;;10.99;61.32
27729;BME280;15126;42.186;24.340;2024-02-28T07:34:26;100105.69;;;11.19;62.02
27729;BME280;15126;42.186;24.340;2024-02-28T07:36:51;100106.56;;;11.20;60.44
27729;BME280;15126;42.186;24.340;2024-02-28T07:39:17;100100.56;;;11.40;61.40
27729;BME280;15126;42.186;24.340;2024-02-28T07:41:42;100096.53;;;11.53;60.16
27729;BME280;15126;42.186;24.340;2024-02-28T07:44:08;100100.31;;;11.65;60.00
27729;BME280;15126;42.186;24.340;2024-02-28T07:46:34;100091.41;;;11.93;59.25
27729;BME280;15126;42.186;24.340;2024-02-28T07:49:00;100090.34;;;11.97;57.21
27729;BME280;15126;42.186;24.340;2024-02-28T07:51:26;100089.97;;;11.86;58.50
27729;BME280;15126;42.186;24.340;2024-02-28T07:53:51;100083.38;;;12.18;59.01
27729;BME280;15126;42.186;24.340;2024-02-28T07:56:17;100084.34;;;12.34;58.13
27729;BME280;15126;42.186;24.340;2024-02-28T07:58:46;100092.00;;;12.36;57.05
27729;BME280;15126;42.186;24.340;2024-02-28T08:01:12;100084.50;;;12.49;57.74
27729;BME280;15126;42.186;24.340;2024-02-28T08:03:37;100087.13;;;12.66;56.60
27729;BME280;15126;42.186;24.340;2024-02-28T08:06:03;100087.66;;;12.73;57.51
27729;BME280;15126;42.186;24.340;2024-02-28T08:08:29;100078.78;;;12.78;58.46
27729;BME280;15126;42.186;24.340;2024-02-28T08:10:55;100086.97;;;12.69;59.02
27729;BME280;15126;42.186;24.340;2024-02-28T08:13:20;100085.16;;;12.89;56.67
27729;BME280;15126;42.186;24.340;2024-02-28T08:15:46;100085.25;;;12.87;58.02
27729;BME280;15126;42.186;24.340;2024-02-28T08:18:12;100084.09;;;12.93;56.17
27729;BME280;15126;42.186;24.340;2024-02-28T08:20:38;100073.09;;;12.89;56.48
27729;BME280;15126;42.186;24.340;2024-02-28T08:23:04;100076.72;;;13.20;55.61
27729;BME280;15126;42.186;24.340;2024-02-28T08:25:30;100065.91;;;13.29;55.90
27729;BME280;15126;42.186;24.340;2024-02-28T08:27:58;100073.06;;;13.41;55.38
27729;BME280;15126;42.186;24.340;2024-02-28T08:30:26;100071.25;;;13.09;55.62
27729;BME280;15126;42.186;24.340;2024-02-28T08:32:54;100070.44;;;13.08;56.29
27729;BME280;15126;42.186;24.340;2024-02-28T08:35:22;100069.19;;;13.33;55.95
27729;BME280;15126;42.186;24.340;2024-02-28T08:37:51;100071.09;;;12.94;57.42
27729;BME280;15126;42.186;24.340;2024-02-28T08:40:18;100079.63;;;12.96;58.33
27729;BME280;15126;42.186;24.340;2024-02-28T08:42:43;100076.41;;;13.26;56.64
27729;BME280;15126;42.186;24.340;2024-02-28T08:45:19;100075.56;;;13.26;55.76
27729;BME280;15126;42.186;24.340;2024-02-28T08:47:45;100080.91;;;13.40;56.22
27729;BME280;15126;42.186;24.340;2024-02-28T08:50:10;100077.53;;;13.55;53.86
27729;BME280;15126;42.186;24.340;2024-02-28T08:52:36;100088.44;;;13.60;54.40
27729;BME280;15126;42.186;24.340;2024-02-28T08:55:02;100086.50;;;13.48;55.39
27729;BME280;15126;42.186;24.340;2024-02-28T08:57:30;100074.38;;;13.33;56.09
27729;BME280;15126;42.186;24.340;2024-02-28T09:00:01;100081.50;;;13.28;55.33
27729;BME280;15126;42.186;24.340;2024-02-28T09:02:29;100073.53;;;13.32;55.78
27729;BME280;15126;42.186;24.340;2024-02-28T09:04:55;100070.91;;;13.50;54.67
27729;BME280;15126;42.186;24.340;2024-02-28T09:07:22;100071.53;;;13.71;57.02
27729;BME280;15126;42.186;24.340;2024-02-28T09:09:47;100069.63;;;13.90;54.47
27729;BME280;15126;42.186;24.340;2024-02-28T09:12:13;100069.41;;;14.11;53.14
27729;BME280;15126;42.186;24.340;2024-02-28T09:14:41;100061.63;;;14.27;53.79
27729;BME280;15126;42.186;24.340;2024-02-28T09:17:10;100061.88;;;14.22;54.53
27729;BME280;15126;42.186;24.340;2024-02-28T09:19:35;100050.13;;;14.16;55.50
27729;BME280;15126;42.186;24.340;2024-02-28T09:22:01;100053.75;;;14.44;53.25
27729;BME280;15126;42.186;24.340;2024-02-28T09:24:30;100058.09;;;14.43;53.36
27729;BME280;15126;42.186;24.340;2024-02-28T09:26:57;100052.16;;;14.57;52.32
27729;BME280;15126;42.186;24.340;2024-02-28T09:29:22;100058.00;;;14.61;53.74
27729;BME280;15126;42.186;24.340;2024-02-28T09:31:48;100052.22;;;14.72;52.07
27729;BME280;15126;42.186;24.340;2024-02-28T09:34:13;100048.38;;;14.47;53.07
27729;BME280;15126;42.186;24.340;2024-02-28T09:36:42;100051.06;;;14.61;51.58
27729;BME280;15126;42.186;24.340;2024-02-28T09:39:13;100057.06;;;14.62;51.19
27729;BME280;15126;42.186;24.340;2024-02-28T09:41:49;100041.94;;;14.70;51.15
27729;BME280;15126;42.186;24.340;2024-02-28T09:44:16;100050.56;;;14.39;52.06
27729;BME280;15126;42.186;24.340;2024-02-28T09:46:42;100049.38;;;14.60;52.60
27729;BME280;15126;42.186;24.340;2024-02-28T09:49:09;100044.38;;;14.88;51.42
27729;BME280;15126;42.186;24.340;2024-02-28T09:51:35;100045.78;;;14.93;51.44
27729;BME280;15126;42.186;24.340;2024-02-28T09:54:04;100050.63;;;14.99;51.44
27729;BME280;15126;42.186;24.340;2024-02-28T09:56:33;100041.38;;;15.10;52.59
27729;BME280;15126;42.186;24.340;2024-02-28T09:59:00;100033.63;;;15.24;53.10
27729;BME280;15126;42.186;24.340;2024-02-28T10:01:28;100029.81;;;15.44;51.03
27729;BME280;15126;42.186;24.340;2024-02-28T10:03:55;100032.78;;;15.52;50.50
27729;BME280;15126;42.186;24.340;2024-02-28T10:06:21;100030.47;;;15.47;50.75
27729;BME280;15126;42.186;24.340;2024-02-28T10:08:48;100020.91;;;15.34;49.56
27729;BME280;15126;42.186;24.340;2024-02-28T10:11:40;100028.97;;;15.15;50.29
27729;BME280;15126;42.186;24.340;2024-02-28T10:14:08;100017.91;;;14.82;51.77
27729;BME280;15126;42.186;24.340;2024-02-28T10:16:34;100016.72;;;14.88;51.36
27729;BME280;15126;42.186;24.340;2024-02-28T10:18:59;100011.78;;;14.53;53.33
27729;BME280;15126;42.186;24.340;2024-02-28T10:21:25;100007.84;;;14.16;53.85
27729;BME280;15126;42.186;24.340;2024-02-28T10:23:51;100007.44;;;14.23;55.24
27729;BME280;15126;42.186;24.340;2024-02-28T10:26:17;100006.00;;;14.18;53.53
27729;BME280;15126;42.186;24.340;2024-02-28T10:28:45;99995.91;;;14.13;55.09
27729;BME280;15126;42.186;24.340;2024-02-28T10:31:26;99988.22;;;14.58;54.63
27729;BME280;15126;42.186;24.340;2024-02-28T10:33:54;99985.88;;;14.69;55.03
27729;BME280;15126;42.186;24.340;2024-02-28T10:36:20;99982.91;;;14.45;52.79
27729;BME280;15126;42.186;24.340;2024-02-28T10:38:45;99978.81;;;14.57;53.86
27729;BME280;15126;42.186;24.340;2024-02-28T10:41:12;99971.03;;;14.41;54.55
27729;BME280;15126;42.186;24.340;2024-02-28T10:43:39;99978.88;;;14.55;55.54
27729;BME280;15126;42.186;24.340;2024-02-28T10:46:06;99970.13;;;14.72;52.61
27729;BME280;15126;42.186;24.340;2024-02-28T10:48:34;99986.97;;;14.49;55.01
27729;BME280;15126;42.186;24.340;2024-02-28T10:51:02;99970.69;;;14.47;55.16
27729;BME280;15126;42.186;24.340;2024-02-28T10:53:35;99973.63;;;14.41;55.53
27729;BME280;15126;42.186;24.340;2024-02-28T10:56:05;99963.19;;;14.58;54.98
27729;BME280;15126;42.186;24.340;2024-02-28T10:58:35;99957.16;;;14.58;54.57
27729;BME280;15126;42.186;24.340;2024-02-28T11:01:13;99964.97;;;14.72;54.33
27729;BME280;15126;42.186;24.340;2024-02-28T11:04:02;99951.47;;;14.96;52.57
27729;BME280;15126;42.186;24.340;2024-02-28T11:06:33;99954.22;;;15.21;53.18
27729;BME280;15126;42.186;24.340;2024-02-28T11:09:04;99946.56;;;15.05;53.94
27729;BME280;15126;42.186;24.340;2024-02-28T11:11:31;99939.34;;;15.11;53.37
27729;BME280;15126;42.186;24.340;2024-02-28T11:13:58;99938.13;;;15.31;52.72
27729;BME280;15126;42.186;24.340;2024-02-28T11:18:53;99929.56;;;15.43;51.01
27729;BME280;15126;42.186;24.340;2024-02-28T11:21:18;99923.19;;;15.34;51.53
27729;BME280;15126;42.186;24.340;2024-02-28T11:23:47;99931.25;;;15.30;52.85
27729;BME280;15126;42.186;24.340;2024-02-28T11:26:21;99924.88;;;15.35;51.58
27729;BME280;15126;42.186;24.340;2024-02-28T11:28:47;99920.72;;;15.33;52.81
27729;BME280;15126;42.186;24.340;2024-02-28T11:31:13;99919.69;;;15.21;52.75
27729;BME280;15126;42.186;24.340;2024-02-28T11:33:41;99917.09;;;15.06;52.32
27729;BME280;15126;42.186;24.340;2024-02-28T11:36:06;99914.06;;;15.14;51.88
27729;BME280;15126;42.186;24.340;2024-02-28T11:38:34;99908.94;;;15.27;52.41
27729;BME280;15126;42.186;24.340;2024-02-28T11:41:32;99908.59;;;15.75;50.81
27729;BME280;15126;42.186;24.340;2024-02-28T11:43:58;99900.38;;;16.08;50.02
27729;BME280;15126;42.186;24.340;2024-02-28T11:46:26;99888.06;;;15.84;50.56
27729;BME280;15126;42.186;24.340;2024-02-28T11:48:54;99897.19;;;15.77;51.67
27729;BME280;15126;42.186;24.340;2024-02-28T11:51:20;99900.53;;;15.23;51.79
27729;BME280;15126;42.186;24.340;2024-02-28T11:53:46;99894.59;;;15.21;52.36
27729;BME280;15126;42.186;24.340;2024-02-28T11:56:11;99888.56;;;15.35;52.80
27729;BME280;15126;42.186;24.340;2024-02-28T11:58:52;99888.03;;;15.57;52.96
27729;BME280;15126;42.186;24.340;2024-02-28T12:01:18;99881.97;;;15.71;50.42
27729;BME280;15126;42.186;24.340;2024-02-28T12:03:47;99873.28;;;15.72;51.92
27729;BME280;15126;42.186;24.340;2024-02-28T12:06:12;99872.25;;;15.75;49.37
27729;BME280;15126;42.186;24.340;2024-02-28T12:08:38;99878.38;;;15.74;51.40
27729;BME280;15126;42.186;24.340;2024-02-28T12:11:07;99870.09;;;15.81;50.58
27729;BME280;15126;42.186;24.340;2024-02-28T12:13:33;99875.66;;;15.48;52.17
27729;BME280;15126;42.186;24.340;2024-02-28T12:16:01;99862.88;;;15.72;53.71
27729;BME280;15126;42.186;24.340;2024-02-28T12:18:27;99857.69;;;16.12;50.10
27729;BME280;15126;42.186;24.340;2024-02-28T12:20:56;99855.41;;;16.33;50.45
27729;BME280;15126;42.186;24.340;2024-02-28T12:23:22;99852.81;;;16.46;51.55
27729;BME280;15126;42.186;24.340;2024-02-28T12:25:47;99842.53;;;16.57;49.28
27729;BME280;15126;42.186;24.340;2024-02-28T12:28:13;99837.03;;;16.23;51.78
27729;BME280;15126;42.186;24.340;2024-02-28T12:30:42;99838.50;;;16.40;49.88
27729;BME280;15126;42.186;24.340;2024-02-28T12:33:08;99835.25;;;16.62;49.99
27729;BME280;15126;42.186;24.340;2024-02-28T12:35:34;99836.06;;;16.63;50.77
27729;BME280;15126;42.186;24.340;2024-02-28T12:38:00;99837.00;;;16.75;49.17
27729;BME280;15126;42.186;24.340;2024-02-28T12:40:25;99836.06;;;16.76;49.64
27729;BME280;15126;42.186;24.340;2024-02-28T12:42:54;99821.28;;;17.02;49.51
27729;BME280;15126;42.186;24.340;2024-02-28T12:45:19;99828.06;;;16.92;49.46
27729;BME280;15126;42.186;24.340;2024-02-28T12:47:46;99821.97;;;17.17;48.11
27729;BME280;15126;42.186;24.340;2024-02-28T12:50:18;99826.78;;;16.97;48.77